sensor_id;sensor_type;location;lat;lon;timestamp;P1;durP1;ratioP1;P2;durP2;ratioP2
53411;SDS011;39307;52.870;13.660;2023-05-07T00:01:01;12.93;;;9.63;;
53411;SDS011;39307;52.870;13.660;2023-05-07T00:03:27;12.88;;;9.60;;
53411;SDS011;39307;52.870;13.660;2023-05-07T00:05:53;11.75;;;9.10;;
53411;SDS011;39307;52.870;13.660;2023-05-07T00:08:20;13.43;;;9.65;;
53411;SDS011;39307;52.870;13.660;2023-05-07T00:10:46;12.27;;;9.02;;
53411;SDS011;39307;52.870;13.660;2023-05-07T00:13:12;11.13;;;9.05;;
53411;SDS011;39307;52.870;13.660;2023-05-07T00:15:38;14.27;;;9.70;;
53411;SDS011;39307;52.870;13.660;2023-05-07T00:18:05;14.10;;;10.23;;
53411;SDS011;39307;52.870;13.660;2023-05-07T00:20:31;12.02;;;9.18;;
53411;SDS011;39307;52.870;13.660;2023-05-07T00:22:57;13.30;;;9.07;;
53411;SDS011;39307;52.870;13.660;2023-05-07T00:25:23;12.82;;;9.77;;
53411;SDS011;39307;52.870;13.660;2023-05-07T00:27:49;12.77;;;9.65;;
53411;SDS011;39307;52.870;13.660;2023-05-07T00:30:16;15.60;;;10.27;;
53411;SDS011;39307;52.870;13.660;2023-05-07T00:32:42;15.35;;;9.85;;
53411;SDS011;39307;52.870;13.660;2023-05-07T00:35:08;14.55;;;9.70;;
53411;SDS011;39307;52.870;13.660;2023-05-07T00:37:34;14.15;;;10.15;;
53411;SDS011;39307;52.870;13.660;2023-05-07T00:40:01;13.63;;;10.43;;
53411;SDS011;39307;52.870;13.660;2023-05-07T00:42:27;15.25;;;10.18;;
53411;SDS011;39307;52.870;13.660;2023-05-07T00:44:53;14.43;;;9.85;;
53411;SDS011;39307;52.870;13.660;2023-05-07T00:47:19;13.60;;;9.95;;
53411;SDS011;39307;52.870;13.660;2023-05-07T00:49:45;13.32;;;9.77;;
53411;SDS011;39307;52.870;13.660;2023-05-07T00:52:15;13.20;;;9.63;;
53411;SDS011;39307;52.870;13.660;2023-05-07T00:54:42;14.90;;;10.20;;
53411;SDS011;39307;52.870;13.660;2023-05-07T00:57:12;13.43;;;9.93;;
53411;SDS011;39307;52.870;13.660;2023-05-07T00:59:38;13.23;;;9.45;;
53411;SDS011;39307;52.870;13.660;2023-05-07T01:02:05;12.07;;;9.70;;
53411;SDS011;39307;52.870;13.660;2023-05-07T01:04:32;12.52;;;10.10;;
53411;SDS011;39307;52.870;13.660;2023-05-07T01:06:58;12.55;;;9.93;;
53411;SDS011;39307;52.870;13.660;2023-05-07T01:09:26;13.38;;;9.70;;
53411;SDS011;39307;52.870;13.660;2023-05-07T01:11:54;12.60;;;9.80;;
53411;SDS011;39307;52.870;13.660;2023-05-07T01:14:21;14.05;;;10.32;;
53411;SDS011;39307;52.870;13.660;2023-05-07T01:16:48;14.88;;;10.55;;
53411;SDS011;39307;52.870;13.660;2023-05-07T01:19:14;13.77;;;10.00;;
53411;SDS011;39307;52.870;13.660;2023-05-07T01:21:44;12.82;;;9.68;;
53411;SDS011;39307;52.870;13.660;2023-05-07T01:24:14;13.30;;;9.95;;
53411;SDS011;39307;52.870;13.660;2023-05-07T01:26:41;13.13;;;9.88;;
53411;SDS011;39307;52.870;13.660;2023-05-07T01:29:08;14.27;;;9.80;;
53411;SDS011;39307;52.870;13.660;2023-05-07T01:31:34;14.77;;;9.83;;
53411;SDS011;39307;52.870;13.660;2023-05-07T01:34:02;13.13;;;10.32;;
53411;SDS011;39307;52.870;13.660;2023-05-07T01:36:30;13.93;;;10.07;;
53411;SDS011;39307;52.870;13.660;2023-05-07T01:38:58;14.40;;;10.20;;
53411;SDS011;39307;52.870;13.660;2023-05-07T01:41:25;15.40;;;9.77;;
53411;SDS011;39307;52.870;13.660;2023-05-07T01:43:51;12.52;;;9.75;;
53411;SDS011;39307;52.870;13.660;2023-05-07T01:46:19;14.60;;;10.20;;
53411;SDS011;39307;52.870;13.660;2023-05-07T01:48:45;13.33;;;9.77;;
53411;SDS011;39307;52.870;13.660;2023-05-07T01:51:12;15.75;;;10.43;;
53411;SDS011;39307;52.870;13.660;2023-05-07T01:53:39;12.98;;;9.88;;
53411;SDS011;39307;52.870;13.660;2023-05-07T01:56:05;14.05;;;10.05;;
53411;SDS011;39307;52.870;13.660;2023-05-07T01:58:32;13.75;;;10.18;;
53411;SDS011;39307;52.870;13.660;2023-05-07T02:00:58;16.23;;;10.02;;
53411;SDS011;39307;52.870;13.660;2023-05-07T02:03:24;15.20;;;10.20;;
53411;SDS011;39307;52.870;13.660;2023-05-07T02:05:51;11.30;;;9.02;;
53411;SDS011;39307;52.870;13.660;2023-05-07T02:08:17;13.85;;;9.93;;
53411;SDS011;39307;52.870;13.660;2023-05-07T02:10:43;13.25;;;9.05;;
53411;SDS011;39307;52.870;13.660;2023-05-07T02:13:09;12.13;;;9.55;;
53411;SDS011;39307;52.870;13.660;2023-05-07T02:15:35;12.77;;;9.82;;
53411;SDS011;39307;52.870;13.660;2023-05-07T02:18:05;13.20;;;9.93;;
53411;SDS011;39307;52.870;13.660;2023-05-07T02:20:34;12.07;;;9.88;;
53411;SDS011;39307;52.870;13.660;2023-05-07T02:23:01;16.42;;;9.95;;
53411;SDS011;39307;52.870;13.660;2023-05-07T02:25:27;13.07;;;9.65;;
53411;SDS011;39307;52.870;13.660;2023-05-07T02:27:53;12.73;;;9.77;;
53411;SDS011;39307;52.870;13.660;2023-05-07T02:30:19;15.80;;;10.30;;
53411;SDS011;39307;52.870;13.660;2023-05-07T02:32:46;15.00;;;10.35;;
53411;SDS011;39307;52.870;13.660;2023-05-07T02:35:12;11.52;;;9.07;;
53411;SDS011;39307;52.870;13.660;2023-05-07T02:37:38;12.88;;;9.25;;
53411;SDS011;39307;52.870;13.660;2023-05-07T02:40:04;12.70;;;9.65;;
53411;SDS011;39307;52.870;13.660;2023-05-07T02:42:31;14.67;;;10.30;;
53411;SDS011;39307;52.870;13.660;2023-05-07T02:44:57;13.00;;;9.80;;
53411;SDS011;39307;52.870;13.660;2023-05-07T02:47:24;12.15;;;9.38;;
53411;SDS011;39307;52.870;13.660;2023-05-07T02:49:50;13.68;;;9.55;;
53411;SDS011;39307;52.870;13.660;2023-05-07T02:52:16;14.93;;;9.55;;
53411;SDS011;39307;52.870;13.660;2023-05-07T02:54:42;13.25;;;9.43;;
53411;SDS011;39307;52.870;13.660;2023-05-07T02:57:09;11.70;;;8.80;;
53411;SDS011;39307;52.870;13.660;2023-05-07T02:59:35;12.43;;;9.27;;
53411;SDS011;39307;52.870;13.660;2023-05-07T03:02:01;13.30;;;9.33;;
53411;SDS011;39307;52.870;13.660;2023-05-07T03:04:27;13.05;;;9.20;;
53411;SDS011;39307;52.870;13.660;2023-05-07T03:06:53;13.27;;;9.07;;
53411;SDS011;39307;52.870;13.660;2023-05-07T03:09:20;13.43;;;9.23;;
53411;SDS011;39307;52.870;13.660;2023-05-07T03:11:46;12.45;;;8.20;;
53411;SDS011;39307;52.870;13.660;2023-05-07T03:14:12;11.93;;;8.65;;
53411;SDS011;39307;52.870;13.660;2023-05-07T03:16:39;11.25;;;8.32;;
53411;SDS011;39307;52.870;13.660;2023-05-07T03:19:05;11.43;;;8.83;;
53411;SDS011;39307;52.870;13.660;2023-05-07T03:21:31;12.80;;;8.18;;
53411;SDS011;39307;52.870;13.660;2023-05-07T03:23:57;11.18;;;8.18;;
53411;SDS011;39307;52.870;13.660;2023-05-07T03:26:24;9.80;;;7.47;;
53411;SDS011;39307;52.870;13.660;2023-05-07T03:28:50;11.18;;;8.18;;
53411;SDS011;39307;52.870;13.660;2023-05-07T03:31:16;14.18;;;8.35;;
53411;SDS011;39307;52.870;13.660;2023-05-07T03:33:53;12.38;;;8.65;;
53411;SDS011;39307;52.870;13.660;2023-05-07T03:36:20;12.55;;;8.75;;
53411;SDS011;39307;52.870;13.660;2023-05-07T03:38:47;11.25;;;8.10;;
53411;SDS011;39307;52.870;13.660;2023-05-07T03:41:14;10.95;;;8.05;;
53411;SDS011;39307;52.870;13.660;2023-05-07T03:43:40;13.00;;;7.85;;
53411;SDS011;39307;52.870;13.660;2023-05-07T03:46:06;13.32;;;8.20;;
53411;SDS011;39307;52.870;13.660;2023-05-07T03:48:33;11.20;;;7.53;;
53411;SDS011;39307;52.870;13.660;2023-05-07T03:50:59;11.73;;;7.78;;
53411;SDS011;39307;52.870;13.660;2023-05-07T03:53:25;10.90;;;7.55;;
53411;SDS011;39307;52.870;13.660;2023-05-07T03:55:51;10.20;;;7.07;;
53411;SDS011;39307;52.870;13.660;2023-05-07T03:58:18;10.68;;;7.65;;
53411;SDS011;39307;52.870;13.660;2023-05-07T04:00:44;10.77;;;7.53;;
53411;SDS011;39307;52.870;13.660;2023-05-07T04:03:10;10.82;;;6.70;;
53411;SDS011;39307;52.870;13.660;2023-05-07T04:05:36;12.07;;;7.95;;
53411;SDS011;39307;52.870;13.660;2023-05-07T04:08:03;10.90;;;7.85;;
53411;SDS011;39307;52.870;13.660;2023-05-07T04:10:29;11.67;;;8.07;;
53411;SDS011;39307;52.870;13.660;2023-05-07T04:12:55;10.57;;;7.40;;
53411;SDS011;39307;52.870;13.660;2023-05-07T04:15:21;11.35;;;8.07;;
53411;SDS011;39307;52.870;13.660;2023-05-07T04:17:48;10.80;;;7.70;;
53411;SDS011;39307;52.870;13.660;2023-05-07T04:20:15;13.00;;;7.83;;
53411;SDS011;39307;52.870;13.660;2023-05-07T04:22:42;13.10;;;7.53;;
53411;SDS011;39307;52.870;13.660;2023-05-07T04:25:08;12.55;;;7.60;;
53411;SDS011;39307;52.870;13.660;2023-05-07T04:27:35;11.67;;;7.57;;
53411;SDS011;39307;52.870;13.660;2023-05-07T04:30:02;13.55;;;7.78;;
53411;SDS011;39307;52.870;13.660;2023-05-07T04:32:28;11.73;;;7.80;;
53411;SDS011;39307;52.870;13.660;2023-05-07T04:34:55;9.48;;;7.07;;
53411;SDS011;39307;52.870;13.660;2023-05-07T04:37:22;11.20;;;7.03;;
53411;SDS011;39307;52.870;13.660;2023-05-07T04:39:48;12.25;;;8.02;;
53411;SDS011;39307;52.870;13.660;2023-05-07T04:42:15;10.73;;;7.53;;
53411;SDS011;39307;52.870;13.660;2023-05-07T04:44:43;9.98;;;7.00;;
53411;SDS011;39307;52.870;13.660;2023-05-07T04:47:09;11.27;;;7.43;;
53411;SDS011;39307;52.870;13.660;2023-05-07T04:49:36;12.30;;;7.45;;
53411;SDS011;39307;52.870;13.660;2023-05-07T04:52:03;12.10;;;7.75;;
53411;SDS011;39307;52.870;13.660;2023-05-07T04:54:30;13.57;;;8.07;;
53411;SDS011;39307;52.870;13.660;2023-05-07T04:56:56;11.45;;;7.72;;
53411;SDS011;39307;52.870;13.660;2023-05-07T04:59:22;11.75;;;8.00;;
53411;SDS011;39307;52.870;13.660;2023-05-07T05:01:49;11.30;;;7.40;;
53411;SDS011;39307;52.870;13.660;2023-05-07T05:04:15;11.75;;;7.57;;
53411;SDS011;39307;52.870;13.660;2023-05-07T05:06:41;11.27;;;7.60;;
53411;SDS011;39307;52.870;13.660;2023-05-07T05:09:07;14.10;;;7.63;;
53411;SDS011;39307;52.870;13.660;2023-05-07T05:11:33;12.17;;;7.63;;
53411;SDS011;39307;52.870;13.660;2023-05-07T05:14:00;10.68;;;7.60;;
53411;SDS011;39307;52.870;13.660;2023-05-07T05:16:27;12.20;;;7.57;;
53411;SDS011;39307;52.870;13.660;2023-05-07T05:18:53;10.85;;;7.50;;
53411;SDS011;39307;52.870;13.660;2023-05-07T05:21:19;12.27;;;8.35;;
53411;SDS011;39307;52.870;13.660;2023-05-07T05:23:46;12.30;;;8.20;;
53411;SDS011;39307;52.870;13.660;2023-05-07T05:26:12;12.90;;;7.90;;
53411;SDS011;39307;52.870;13.660;2023-05-07T05:28:38;12.82;;;8.23;;
53411;SDS011;39307;52.870;13.660;2023-05-07T05:31:05;10.63;;;8.00;;
53411;SDS011;39307;52.870;13.660;2023-05-07T05:33:31;12.38;;;8.07;;
53411;SDS011;39307;52.870;13.660;2023-05-07T05:35:57;12.83;;;8.37;;
53411;SDS011;39307;52.870;13.660;2023-05-07T05:38:23;12.07;;;8.57;;
53411;SDS011;39307;52.870;13.660;2023-05-07T05:40:50;12.20;;;8.85;;
53411;SDS011;39307;52.870;13.660;2023-05-07T05:43:16;11.45;;;8.38;;
53411;SDS011;39307;52.870;13.660;2023-05-07T05:45:42;13.48;;;9.10;;
53411;SDS011;39307;52.870;13.660;2023-05-07T05:48:08;11.32;;;7.90;;
53411;SDS011;39307;52.870;13.660;2023-05-07T05:50:35;11.93;;;8.15;;
53411;SDS011;39307;52.870;13.660;2023-05-07T05:53:01;11.65;;;8.50;;
53411;SDS011;39307;52.870;13.660;2023-05-07T05:55:27;11.83;;;8.17;;
53411;SDS011;39307;52.870;13.660;2023-05-07T05:57:54;12.85;;;8.45;;
53411;SDS011;39307;52.870;13.660;2023-05-07T06:00:20;12.18;;;8.32;;
53411;SDS011;39307;52.870;13.660;2023-05-07T06:02:46;13.98;;;8.57;;
53411;SDS011;39307;52.870;13.660;2023-05-07T06:05:12;13.38;;;9.30;;
53411;SDS011;39307;52.870;13.660;2023-05-07T06:07:38;14.25;;;9.80;;
53411;SDS011;39307;52.870;13.660;2023-05-07T06:10:05;14.17;;;8.97;;
53411;SDS011;39307;52.870;13.660;2023-05-07T06:12:32;13.68;;;8.90;;
53411;SDS011;39307;52.870;13.660;2023-05-07T06:14:58;11.02;;;8.27;;
53411;SDS011;39307;52.870;13.660;2023-05-07T06:17:24;14.30;;;8.50;;
53411;SDS011;39307;52.870;13.660;2023-05-07T06:19:50;12.40;;;8.70;;
53411;SDS011;39307;52.870;13.660;2023-05-07T06:22:17;12.33;;;7.77;;
53411;SDS011;39307;52.870;13.660;2023-05-07T06:24:43;12.55;;;7.82;;
53411;SDS011;39307;52.870;13.660;2023-05-07T06:27:10;12.05;;;7.93;;
53411;SDS011;39307;52.870;13.660;2023-05-07T06:29:36;11.55;;;7.80;;
53411;SDS011;39307;52.870;13.660;2023-05-07T06:32:09;10.50;;;7.20;;
53411;SDS011;39307;52.870;13.660;2023-05-07T06:34:39;11.65;;;6.78;;
53411;SDS011;39307;52.870;13.660;2023-05-07T06:37:06;11.63;;;6.75;;
53411;SDS011;39307;52.870;13.660;2023-05-07T06:39:32;10.52;;;6.68;;
53411;SDS011;39307;52.870;13.660;2023-05-07T06:41:59;10.52;;;6.20;;
53411;SDS011;39307;52.870;13.660;2023-05-07T06:44:26;9.50;;;6.70;;
53411;SDS011;39307;52.870;13.660;2023-05-07T06:46:52;11.27;;;6.53;;
53411;SDS011;39307;52.870;13.660;2023-05-07T06:49:19;11.77;;;6.60;;
53411;SDS011;39307;52.870;13.660;2023-05-07T06:51:45;9.55;;;6.13;;
53411;SDS011;39307;52.870;13.660;2023-05-07T06:54:11;10.63;;;6.15;;
53411;SDS011;39307;52.870;13.660;2023-05-07T06:56:37;11.90;;;6.53;;
53411;SDS011;39307;52.870;13.660;2023-05-07T06:59:04;10.02;;;5.68;;
53411;SDS011;39307;52.870;13.660;2023-05-07T07:01:30;8.40;;;5.33;;
53411;SDS011;39307;52.870;13.660;2023-05-07T07:03:56;8.33;;;5.10;;
53411;SDS011;39307;52.870;13.660;2023-05-07T07:06:22;9.45;;;5.22;;
53411;SDS011;39307;52.870;13.660;2023-05-07T07:08:48;9.25;;;5.22;;
53411;SDS011;39307;52.870;13.660;2023-05-07T07:11:14;9.70;;;5.68;;
53411;SDS011;39307;52.870;13.660;2023-05-07T07:13:41;10.15;;;5.60;;
53411;SDS011;39307;52.870;13.660;2023-05-07T07:16:07;9.85;;;5.78;;
53411;SDS011;39307;52.870;13.660;2023-05-07T07:18:33;8.98;;;5.03;;
53411;SDS011;39307;52.870;13.660;2023-05-07T07:20:59;8.50;;;4.85;;
53411;SDS011;39307;52.870;13.660;2023-05-07T07:23:26;9.02;;;4.82;;
53411;SDS011;39307;52.870;13.660;2023-05-07T07:25:52;7.68;;;5.30;;
53411;SDS011;39307;52.870;13.660;2023-05-07T07:28:20;8.55;;;4.97;;
53411;SDS011;39307;52.870;13.660;2023-05-07T07:30:46;7.72;;;4.70;;
53411;SDS011;39307;52.870;13.660;2023-05-07T07:33:12;9.00;;;4.78;;
53411;SDS011;39307;52.870;13.660;2023-05-07T07:35:39;8.48;;;4.60;;
53411;SDS011;39307;52.870;13.660;2023-05-07T07:38:05;8.00;;;4.05;;
53411;SDS011;39307;52.870;13.660;2023-05-07T07:40:31;6.78;;;4.05;;
53411;SDS011;39307;52.870;13.660;2023-05-07T07:43:00;8.50;;;4.07;;
53411;SDS011;39307;52.870;13.660;2023-05-07T07:45:26;7.28;;;3.80;;
53411;SDS011;39307;52.870;13.660;2023-05-07T07:47:52;9.13;;;4.40;;
53411;SDS011;39307;52.870;13.660;2023-05-07T07:50:19;8.85;;;4.00;;
53411;SDS011;39307;52.870;13.660;2023-05-07T07:52:45;8.98;;;4.30;;
53411;SDS011;39307;52.870;13.660;2023-05-07T07:55:11;6.13;;;3.78;;
53411;SDS011;39307;52.870;13.660;2023-05-07T07:57:38;8.85;;;3.63;;
53411;SDS011;39307;52.870;13.660;2023-05-07T08:00:04;7.72;;;3.58;;
53411;SDS011;39307;52.870;13.660;2023-05-07T08:02:31;7.18;;;2.92;;
53411;SDS011;39307;52.870;13.660;2023-05-07T08:04:57;7.32;;;3.00;;
53411;SDS011;39307;52.870;13.660;2023-05-07T08:07:23;5.78;;;2.92;;
53411;SDS011;39307;52.870;13.660;2023-05-07T08:09:50;5.80;;;2.90;;
53411;SDS011;39307;52.870;13.660;2023-05-07T08:12:16;6.15;;;3.00;;
53411;SDS011;39307;52.870;13.660;2023-05-07T08:14:42;6.40;;;3.05;;
53411;SDS011;39307;52.870;13.660;2023-05-07T08:17:08;6.80;;;3.67;;
53411;SDS011;39307;52.870;13.660;2023-05-07T08:19:34;7.22;;;2.67;;
53411;SDS011;39307;52.870;13.660;2023-05-07T08:22:01;5.93;;;2.80;;
53411;SDS011;39307;52.870;13.660;2023-05-07T08:24:28;6.10;;;2.60;;
53411;SDS011;39307;52.870;13.660;2023-05-07T08:26:54;6.57;;;2.50;;
53411;SDS011;39307;52.870;13.660;2023-05-07T08:29:20;6.00;;;2.80;;
53411;SDS011;39307;52.870;13.660;2023-05-07T08:31:47;5.57;;;2.70;;
53411;SDS011;39307;52.870;13.660;2023-05-07T08:34:13;5.30;;;2.30;;
53411;SDS011;39307;52.870;13.660;2023-05-07T08:36:39;4.72;;;2.10;;
53411;SDS011;39307;52.870;13.660;2023-05-07T08:39:05;4.88;;;2.17;;
53411;SDS011;39307;52.870;13.660;2023-05-07T08:41:31;6.97;;;2.50;;
53411;SDS011;39307;52.870;13.660;2023-05-07T08:43:58;6.38;;;2.42;;
53411;SDS011;39307;52.870;13.660;2023-05-07T08:46:30;4.53;;;2.10;;
53411;SDS011;39307;52.870;13.660;2023-05-07T08:48:57;5.60;;;2.38;;
53411;SDS011;39307;52.870;13.660;2023-05-07T08:51:24;4.78;;;2.10;;
53411;SDS011;39307;52.870;13.660;2023-05-07T08:53:50;5.75;;;2.38;;
53411;SDS011;39307;52.870;13.660;2023-05-07T08:56:16;4.60;;;2.10;;
53411;SDS011;39307;52.870;13.660;2023-05-07T08:58:43;5.40;;;2.10;;
53411;SDS011;39307;52.870;13.660;2023-05-07T09:01:11;4.68;;;2.20;;
53411;SDS011;39307;52.870;13.660;2023-05-07T09:03:40;5.07;;;2.28;;
53411;SDS011;39307;52.870;13.660;2023-05-07T09:06:07;3.60;;;2.00;;
53411;SDS011;39307;52.870;13.660;2023-05-07T09:08:33;4.30;;;2.10;;
53411;SDS011;39307;52.870;13.660;2023-05-07T09:11:01;4.32;;;2.00;;
53411;SDS011;39307;52.870;13.660;2023-05-07T09:13:27;4.55;;;1.90;;
53411;SDS011;39307;52.870;13.660;2023-05-07T09:15:54;5.73;;;2.03;;
53411;SDS011;39307;52.870;13.660;2023-05-07T09:18:21;3.95;;;1.70;;
53411;SDS011;39307;52.870;13.660;2023-05-07T09:20:50;4.72;;;1.83;;
53411;SDS011;39307;52.870;13.660;2023-05-07T09:23:16;3.93;;;1.60;;
53411;SDS011;39307;52.870;13.660;2023-05-07T09:25:43;3.70;;;1.77;;
53411;SDS011;39307;52.870;13.660;2023-05-07T09:28:09;3.25;;;1.73;;
53411;SDS011;39307;52.870;13.660;2023-05-07T09:30:36;3.65;;;1.70;;
53411;SDS011;39307;52.870;13.660;2023-05-07T09:33:03;4.53;;;1.63;;
53411;SDS011;39307;52.870;13.660;2023-05-07T09:35:30;4.55;;;1.60;;
53411;SDS011;39307;52.870;13.660;2023-05-07T09:37:57;3.92;;;1.90;;
53411;SDS011;39307;52.870;13.660;2023-05-07T09:40:27;3.63;;;1.60;;
53411;SDS011;39307;52.870;13.660;2023-05-07T09:42:54;4.28;;;1.52;;
53411;SDS011;39307;52.870;13.660;2023-05-07T09:45:27;4.22;;;1.50;;
53411;SDS011;39307;52.870;13.660;2023-05-07T09:47:54;3.60;;;1.35;;
53411;SDS011;39307;52.870;13.660;2023-05-07T09:50:25;4.03;;;1.63;;
53411;SDS011;39307;52.870;13.660;2023-05-07T09:53:15;2.92;;;1.60;;
53411;SDS011;39307;52.870;13.660;2023-05-07T09:55:43;3.08;;;1.50;;
53411;SDS011;39307;52.870;13.660;2023-05-07T09:58:09;3.53;;;1.80;;
53411;SDS011;39307;52.870;13.660;2023-05-07T10:00:40;5.57;;;2.28;;
53411;SDS011;39307;52.870;13.660;2023-05-07T10:03:07;3.47;;;1.60;;
53411;SDS011;39307;52.870;13.660;2023-05-07T10:05:34;4.50;;;1.98;;
53411;SDS011;39307;52.870;13.660;2023-05-07T10:08:01;4.32;;;2.50;;
53411;SDS011;39307;52.870;13.660;2023-05-07T10:10:28;3.92;;;1.70;;
53411;SDS011;39307;52.870;13.660;2023-05-07T10:12:56;3.85;;;1.77;;
53411;SDS011;39307;52.870;13.660;2023-05-07T10:15:22;3.55;;;1.95;;
53411;SDS011;39307;52.870;13.660;2023-05-07T10:17:49;4.03;;;1.90;;
53411;SDS011;39307;52.870;13.660;2023-05-07T10:20:17;4.43;;;1.90;;
53411;SDS011;39307;52.870;13.660;2023-05-07T10:22:44;4.20;;;1.60;;
53411;SDS011;39307;52.870;13.660;2023-05-07T10:25:17;4.63;;;1.92;;
53411;SDS011;39307;52.870;13.660;2023-05-07T10:27:53;4.25;;;1.80;;
53411;SDS011;39307;52.870;13.660;2023-05-07T10:33:15;3.40;;;1.60;;
53411;SDS011;39307;52.870;13.660;2023-05-07T10:35:46;4.80;;;1.75;;
53411;SDS011;39307;52.870;13.660;2023-05-07T10:38:13;3.58;;;1.75;;
53411;SDS011;39307;52.870;13.660;2023-05-07T10:40:39;5.60;;;2.00;;
53411;SDS011;39307;52.870;13.660;2023-05-07T10:43:06;4.88;;;1.75;;
53411;SDS011;39307;52.870;13.660;2023-05-07T10:45:32;5.72;;;1.80;;
53411;SDS011;39307;52.870;13.660;2023-05-07T10:48:12;5.90;;;2.17;;
53411;SDS011;39307;52.870;13.660;2023-05-07T10:50:40;4.22;;;1.70;;
53411;SDS011;39307;52.870;13.660;2023-05-07T10:55:49;3.85;;;2.00;;
53411;SDS011;39307;52.870;13.660;2023-05-07T10:58:26;5.20;;;1.80;;
53411;SDS011;39307;52.870;13.660;2023-05-07T11:00:57;5.33;;;1.73;;
53411;SDS011;39307;52.870;13.660;2023-05-07T11:03:27;4.65;;;1.63;;
53411;SDS011;39307;52.870;13.660;2023-05-07T11:06:10;4.53;;;1.77;;
53411;SDS011;39307;52.870;13.660;2023-05-07T11:08:53;4.53;;;1.80;;
53411;SDS011;39307;52.870;13.660;2023-05-07T11:14:27;3.58;;;1.80;;
53411;SDS011;39307;52.870;13.660;2023-05-07T11:17:07;4.55;;;1.90;;
53411;SDS011;39307;52.870;13.660;2023-05-07T11:19:56;3.88;;;1.85;;
53411;SDS011;39307;52.870;13.660;2023-05-07T11:25:00;3.15;;;1.70;;
53411;SDS011;39307;52.870;13.660;2023-05-07T11:27:28;4.15;;;1.83;;
53411;SDS011;39307;52.870;13.660;2023-05-07T11:29:55;4.10;;;1.80;;
53411;SDS011;39307;52.870;13.660;2023-05-07T11:32:22;2.53;;;1.42;;
53411;SDS011;39307;52.870;13.660;2023-05-07T11:34:52;4.13;;;1.83;;
53411;SDS011;39307;52.870;13.660;2023-05-07T11:37:21;5.32;;;2.00;;
53411;SDS011;39307;52.870;13.660;2023-05-07T11:39:49;5.72;;;2.00;;
53411;SDS011;39307;52.870;13.660;2023-05-07T11:42:25;6.32;;;1.92;;
53411;SDS011;39307;52.870;13.660;2023-05-07T11:44:52;5.57;;;2.05;;
53411;SDS011;39307;52.870;13.660;2023-05-07T11:47:18;3.80;;;2.00;;
53411;SDS011;39307;52.870;13.660;2023-05-07T11:49:48;4.15;;;1.75;;
53411;SDS011;39307;52.870;13.660;2023-05-07T11:52:16;5.05;;;1.90;;
53411;SDS011;39307;52.870;13.660;2023-05-07T11:54:50;4.10;;;1.88;;
53411;SDS011;39307;52.870;13.660;2023-05-07T11:57:18;4.18;;;2.00;;
53411;SDS011;39307;52.870;13.660;2023-05-07T11:59:45;4.38;;;2.03;;
53411;SDS011;39307;52.870;13.660;2023-05-07T12:02:11;5.63;;;1.90;;
53411;SDS011;39307;52.870;13.660;2023-05-07T12:04:40;3.78;;;1.80;;
53411;SDS011;39307;52.870;13.660;2023-05-07T12:07:11;7.25;;;1.98;;
53411;SDS011;39307;52.870;13.660;2023-05-07T12:09:41;5.00;;;2.08;;
53411;SDS011;39307;52.870;13.660;2023-05-07T12:12:08;4.75;;;1.73;;
53411;SDS011;39307;52.870;13.660;2023-05-07T12:14:40;5.20;;;1.80;;
53411;SDS011;39307;52.870;13.660;2023-05-07T12:17:08;4.25;;;1.92;;
53411;SDS011;39307;52.870;13.660;2023-05-07T12:19:36;4.53;;;1.75;;
53411;SDS011;39307;52.870;13.660;2023-05-07T12:22:04;3.90;;;1.70;;
53411;SDS011;39307;52.870;13.660;2023-05-07T12:24:46;3.20;;;1.75;;
53411;SDS011;39307;52.870;13.660;2023-05-07T12:27:14;7.18;;;2.15;;
53411;SDS011;39307;52.870;13.660;2023-05-07T12:29:43;4.30;;;1.90;;
53411;SDS011;39307;52.870;13.660;2023-05-07T12:32:18;3.75;;;1.80;;
53411;SDS011;39307;52.870;13.660;2023-05-07T12:34:51;6.90;;;1.80;;
53411;SDS011;39307;52.870;13.660;2023-05-07T12:37:22;4.43;;;1.95;;
53411;SDS011;39307;52.870;13.660;2023-05-07T12:40:02;3.83;;;1.80;;
53411;SDS011;39307;52.870;13.660;2023-05-07T12:42:32;4.23;;;1.80;;
53411;SDS011;39307;52.870;13.660;2023-05-07T12:45:16;5.10;;;1.70;;
53411;SDS011;39307;52.870;13.660;2023-05-07T12:47:46;4.95;;;1.95;;
53411;SDS011;39307;52.870;13.660;2023-05-07T12:50:16;3.95;;;2.00;;
53411;SDS011;39307;52.870;13.660;2023-05-07T12:52:45;4.13;;;1.70;;
53411;SDS011;39307;52.870;13.660;2023-05-07T12:55:16;4.13;;;1.70;;
53411;SDS011;39307;52.870;13.660;2023-05-07T12:57:43;4.97;;;1.80;;
53411;SDS011;39307;52.870;13.660;2023-05-07T13:00:39;6.82;;;1.98;;
53411;SDS011;39307;52.870;13.660;2023-05-07T13:03:05;4.30;;;2.00;;
53411;SDS011;39307;52.870;13.660;2023-05-07T13:05:31;3.17;;;1.80;;
53411;SDS011;39307;52.870;13.660;2023-05-07T13:07:58;5.03;;;1.90;;
53411;SDS011;39307;52.870;13.660;2023-05-07T13:10:24;5.00;;;2.20;;
53411;SDS011;39307;52.870;13.660;2023-05-07T13:12:51;4.13;;;1.73;;
53411;SDS011;39307;52.870;13.660;2023-05-07T13:15:17;3.87;;;2.00;;
53411;SDS011;39307;52.870;13.660;2023-05-07T13:17:44;4.18;;;1.90;;
53411;SDS011;39307;52.870;13.660;2023-05-07T13:20:10;4.78;;;1.90;;
53411;SDS011;39307;52.870;13.660;2023-05-07T13:22:37;4.45;;;1.65;;
53411;SDS011;39307;52.870;13.660;2023-05-07T13:25:03;4.03;;;1.80;;
53411;SDS011;39307;52.870;13.660;2023-05-07T13:27:29;3.90;;;1.98;;
53411;SDS011;39307;52.870;13.660;2023-05-07T13:29:56;5.15;;;1.80;;
53411;SDS011;39307;52.870;13.660;2023-05-07T13:32:22;5.82;;;2.00;;
53411;SDS011;39307;52.870;13.660;2023-05-07T13:34:49;3.25;;;1.80;;
53411;SDS011;39307;52.870;13.660;2023-05-07T13:37:15;4.75;;;1.73;;
53411;SDS011;39307;52.870;13.660;2023-05-07T13:39:41;3.70;;;1.90;;
53411;SDS011;39307;52.870;13.660;2023-05-07T13:42:07;4.05;;;1.90;;
53411;SDS011;39307;52.870;13.660;2023-05-07T13:44:33;3.33;;;1.70;;
53411;SDS011;39307;52.870;13.660;2023-05-07T13:46:59;3.78;;;1.80;;
53411;SDS011;39307;52.870;13.660;2023-05-07T13:49:26;4.78;;;1.85;;
53411;SDS011;39307;52.870;13.660;2023-05-07T13:51:52;4.90;;;1.98;;
53411;SDS011;39307;52.870;13.660;2023-05-07T13:54:18;4.72;;;1.80;;
53411;SDS011;39307;52.870;13.660;2023-05-07T13:56:44;3.63;;;1.83;;
53411;SDS011;39307;52.870;13.660;2023-05-07T13:59:11;3.70;;;1.70;;
53411;SDS011;39307;52.870;13.660;2023-05-07T14:01:37;4.22;;;1.83;;
53411;SDS011;39307;52.870;13.660;2023-05-07T14:04:06;4.32;;;2.08;;
53411;SDS011;39307;52.870;13.660;2023-05-07T14:06:32;4.07;;;1.80;;
53411;SDS011;39307;52.870;13.660;2023-05-07T14:08:58;4.60;;;1.90;;
53411;SDS011;39307;52.870;13.660;2023-05-07T14:11:24;4.15;;;1.73;;
53411;SDS011;39307;52.870;13.660;2023-05-07T14:13:51;4.88;;;1.88;;
53411;SDS011;39307;52.870;13.660;2023-05-07T14:16:17;3.63;;;1.55;;
53411;SDS011;39307;52.870;13.660;2023-05-07T14:18:43;4.20;;;1.92;;
53411;SDS011;39307;52.870;13.660;2023-05-07T14:21:09;3.67;;;1.95;;
53411;SDS011;39307;52.870;13.660;2023-05-07T14:23:35;3.67;;;1.77;;
53411;SDS011;39307;52.870;13.660;2023-05-07T14:26:02;3.72;;;1.58;;
53411;SDS011;39307;52.870;13.660;2023-05-07T14:28:28;3.65;;;1.80;;
53411;SDS011;39307;52.870;13.660;2023-05-07T14:30:54;3.22;;;1.60;;
53411;SDS011;39307;52.870;13.660;2023-05-07T14:33:20;3.55;;;1.75;;
53411;SDS011;39307;52.870;13.660;2023-05-07T14:35:47;3.67;;;1.50;;
53411;SDS011;39307;52.870;13.660;2023-05-07T14:38:13;3.20;;;1.60;;
53411;SDS011;39307;52.870;13.660;2023-05-07T14:40:39;3.95;;;1.67;;